Terminal Aerodrome Forecast
Issued by NWS Wilmington, NC

Home | Current Version | Previous Version | Text Only | Print | Product List | Glossary On
Versions: 1 2 3 4 5 6 7 8 9 10 11 12 13 14 15 16 17 18
000
FTUS42 KILM 242330
TAFFLO
TAF
KFLO 242330Z 2500/2524 03013KT 6SM -SHRA BKN006 BKN040 OVC070
     FM250300 02009KT P6SM OVC008
      TEMPO 2503/2506 2SM SHRA OVC005
     FM250600 33006KT 1 1/2SM BR OVC004
     FM250900 27005KT P6SM OVC004
     FM251200 26008KT 5SM BR OVC004
     FM251800 30008KT P6SM OVC015
     FM252100 32008KT P6SM OVC050=

USA.gov is the U.S. government's official web portal to all federal, state and local government web resources and services.